createdAt,value
2023-02-14T00:00:38.508Z,4.90
2023-02-14T00:03:07.488Z,6.93
2023-02-14T00:05:35.253Z,5.87
2023-02-14T00:08:02.827Z,5.87
2023-02-14T00:10:30.296Z,6.07
2023-02-14T00:12:57.790Z,5.10
2023-02-14T00:15:25.188Z,6.03
2023-02-14T00:17:55.227Z,5.57
2023-02-14T00:20:24.828Z,6.60
2023-02-14T00:22:53.513Z,6.10
2023-02-14T00:25:21.237Z,6.20
2023-02-14T00:27:48.958Z,7.27
2023-02-14T00:30:16.595Z,6.03
2023-02-14T00:32:44.091Z,5.20
2023-02-14T00:35:12.294Z,6.20
2023-02-14T00:37:43.193Z,5.37
2023-02-14T00:40:11.147Z,7.20
2023-02-14T00:42:40.253Z,6.00
2023-02-14T00:45:08.413Z,7.30
2023-02-14T00:47:38.295Z,5.63
2023-02-14T00:50:06.819Z,6.63
2023-02-14T00:52:34.350Z,6.37
2023-02-14T00:55:03.176Z,6.50
2023-02-14T00:57:30.693Z,6.03
2023-02-14T00:59:58.190Z,7.50
2023-02-14T01:02:25.837Z,6.13
2023-02-14T01:04:53.340Z,6.43
2023-02-14T01:07:22.616Z,6.10
2023-02-14T01:09:50.112Z,6.33
2023-02-14T01:12:19.236Z,7.07
2023-02-14T01:14:46.718Z,7.50
2023-02-14T01:17:14.432Z,6.60
2023-02-14T01:19:42.410Z,6.50
2023-02-14T01:22:09.882Z,6.23
2023-02-14T01:24:37.384Z,7.00
2023-02-14T01:27:05.023Z,6.00
2023-02-14T01:29:34.906Z,6.40
2023-02-14T01:32:02.584Z,6.67
2023-02-14T01:34:30.118Z,7.57
2023-02-14T01:36:57.562Z,8.67
2023-02-14T01:39:25.144Z,7.40
2023-02-14T01:41:53.839Z,8.53
2023-02-14T01:44:58.689Z,7.10
2023-02-14T01:47:28.910Z,6.90
2023-02-14T01:50:01.620Z,6.90
2023-02-14T01:52:35.519Z,7.37
2023-02-14T01:55:05.914Z,6.50
2023-02-14T01:57:37.909Z,7.50
2023-02-14T02:00:27.323Z,8.53
2023-02-14T02:02:56.879Z,9.37
2023-02-14T02:05:24.750Z,7.77
2023-02-14T02:07:53.065Z,7.63
2023-02-14T02:10:21.825Z,7.27
2023-02-14T02:12:53.294Z,8.40
2023-02-14T02:15:24.862Z,7.77
2023-02-14T02:18:03.504Z,7.97
2023-02-14T02:21:10.944Z,7.77
2023-02-14T02:23:57.935Z,7.13
2023-02-14T02:27:13.058Z,9.03
2023-02-14T02:30:15.128Z,8.20
2023-02-14T02:33:26.447Z,7.80
2023-02-14T02:36:25.482Z,8.70
2023-02-14T02:39:10.304Z,8.17
2023-02-14T02:41:49.412Z,8.43
2023-02-14T02:44:19.842Z,7.60
2023-02-14T02:46:56.163Z,10.00
2023-02-14T02:49:51.294Z,7.80
2023-02-14T02:52:45.328Z,8.13
2023-02-14T02:55:18.736Z,8.80
2023-02-14T02:57:48.209Z,7.60
2023-02-14T03:00:18.377Z,7.37
2023-02-14T03:03:07.103Z,7.67
2023-02-14T03:05:36.298Z,8.37
2023-02-14T03:08:06.102Z,7.27
2023-02-14T03:10:37.671Z,8.20
2023-02-14T03:13:31.879Z,8.10
2023-02-14T03:16:18.886Z,8.60
2023-02-14T03:19:22.001Z,8.90
2023-02-14T03:21:57.474Z,7.27
2023-02-14T03:24:33.532Z,8.13
2023-02-14T03:27:07.672Z,7.00
2023-02-14T03:29:48.290Z,9.73
2023-02-14T03:32:23.669Z,7.17
2023-02-14T03:34:55.978Z,8.63
2023-02-14T03:37:29.975Z,7.50
2023-02-14T03:40:07.264Z,9.17
2023-02-14T03:42:39.683Z,7.90
2023-02-14T03:45:11.374Z,8.27
2023-02-14T03:47:43.251Z,9.03
2023-02-14T03:50:15.732Z,7.40
2023-02-14T03:52:46.174Z,9.10
2023-02-14T03:55:18.862Z,8.33
2023-02-14T03:58:10.384Z,7.70
2023-02-14T04:00:41.109Z,8.03
2023-02-14T04:03:12.885Z,8.60
2023-02-14T04:05:43.508Z,7.80
2023-02-14T04:08:12.000Z,8.07
2023-02-14T04:10:43.078Z,7.70
2023-02-14T04:13:10.560Z,7.60
2023-02-14T04:15:38.082Z,8.17
2023-02-14T04:18:23.345Z,7.70
2023-02-14T04:20:50.804Z,7.13
2023-02-14T04:23:18.288Z,8.73
2023-02-14T04:25:47.139Z,8.50
2023-02-14T04:28:15.054Z,9.00
2023-02-14T04:30:42.609Z,6.93
2023-02-14T04:33:10.770Z,7.70
2023-02-14T04:35:38.567Z,6.63
2023-02-14T04:38:06.491Z,7.27
2023-02-14T04:40:34.085Z,8.00
2023-02-14T04:43:04.517Z,8.77
2023-02-14T04:45:32.048Z,8.57
2023-02-14T04:47:59.554Z,8.83
2023-02-14T04:50:28.088Z,7.03
2023-02-14T04:52:55.607Z,7.60
2023-02-14T04:55:23.411Z,9.20
2023-02-14T04:57:50.891Z,8.13
2023-02-14T05:00:20.987Z,7.30
2023-02-14T05:02:48.703Z,7.73
2023-02-14T05:05:16.402Z,7.23
2023-02-14T05:07:47.559Z,6.87
2023-02-14T05:10:15.767Z,7.63
2023-02-14T05:12:43.259Z,6.93
2023-02-14T05:15:11.431Z,6.50
2023-02-14T05:17:41.025Z,9.07
2023-02-14T05:20:09.985Z,8.20
2023-02-14T05:22:37.468Z,7.73
2023-02-14T05:25:04.978Z,8.00
2023-02-14T05:27:32.483Z,8.03
2023-02-14T05:30:00.302Z,8.07
2023-02-14T05:32:27.872Z,7.03
2023-02-14T05:34:56.749Z,7.53
2023-02-14T05:37:24.803Z,8.20
2023-02-14T05:39:52.493Z,8.33
2023-02-14T05:42:20.036Z,9.43
2023-02-14T05:44:48.669Z,9.33
2023-02-14T05:47:16.501Z,7.77
2023-02-14T05:49:43.993Z,11.33
2023-02-14T05:52:12.843Z,8.47
2023-02-14T05:54:40.316Z,8.07
2023-02-14T05:57:07.973Z,10.07
2023-02-14T05:59:35.419Z,8.80
2023-02-14T06:02:02.973Z,10.40
2023-02-14T06:04:30.839Z,11.03
2023-02-14T06:06:58.327Z,9.30
2023-02-14T06:09:27.357Z,9.93
2023-02-14T06:11:55.434Z,9.60
2023-02-14T06:14:22.929Z,10.53
2023-02-14T06:16:50.553Z,9.63
2023-02-14T06:19:18.004Z,9.53
2023-02-14T06:21:45.432Z,9.30
2023-02-14T06:24:13.137Z,8.23
2023-02-14T06:26:41.992Z,7.97
2023-02-14T06:29:09.446Z,9.60
2023-02-14T06:31:37.044Z,8.97
2023-02-14T06:34:04.600Z,7.73
2023-02-14T06:36:32.141Z,8.40
2023-02-14T06:38:59.601Z,7.53
2023-02-14T06:41:27.089Z,7.70
2023-02-14T06:43:55.906Z,8.57
2023-02-14T06:46:23.589Z,7.70
2023-02-14T06:48:51.100Z,7.10
2023-02-14T06:51:18.859Z,6.47
2023-02-14T06:53:46.412Z,7.30
2023-02-14T06:56:13.923Z,7.60
2023-02-14T06:58:41.417Z,6.77
2023-02-14T07:01:10.226Z,6.97
2023-02-14T07:03:37.723Z,7.97
2023-02-14T07:06:05.459Z,7.30
2023-02-14T07:08:32.922Z,7.23
2023-02-14T07:11:00.790Z,7.67
2023-02-14T07:13:28.638Z,6.87
2023-02-14T07:15:56.199Z,8.30
2023-02-14T07:18:25.041Z,7.57
2023-02-14T07:20:52.844Z,7.10
2023-02-14T07:23:20.393Z,8.57
2023-02-14T07:25:47.967Z,7.23
2023-02-14T07:28:15.480Z,7.37
2023-02-14T07:30:42.976Z,7.27
2023-02-14T07:33:10.493Z,6.57
2023-02-14T07:35:39.354Z,7.50
2023-02-14T07:38:06.805Z,7.00
2023-02-14T07:40:34.443Z,6.87
2023-02-14T07:43:01.989Z,8.50
2023-02-14T07:45:29.651Z,7.00
2023-02-14T07:47:59.868Z,7.10
2023-02-14T07:50:27.345Z,6.90
2023-02-14T07:52:56.418Z,6.93
2023-02-14T07:55:24.990Z,6.80
2023-02-14T07:57:52.931Z,6.73
2023-02-14T08:00:21.513Z,6.50
2023-02-14T08:02:49.479Z,7.60
2023-02-14T08:05:17.197Z,7.27
2023-02-14T08:07:45.076Z,7.40
2023-02-14T08:10:14.015Z,6.20
2023-02-14T08:13:00.076Z,6.70
2023-02-14T08:15:46.570Z,6.63
2023-02-14T08:18:14.745Z,6.77
2023-02-14T08:20:43.596Z,6.90
2023-02-14T08:23:11.503Z,7.50
2023-02-14T08:25:40.748Z,6.57
2023-02-14T08:28:08.269Z,5.70
2023-02-14T08:30:38.011Z,7.80
2023-02-14T08:33:05.643Z,7.80
2023-02-14T08:35:33.169Z,7.20
2023-02-14T08:38:01.203Z,7.70
2023-02-14T08:40:29.247Z,8.87
2023-02-14T08:42:58.329Z,8.10
2023-02-14T08:45:26.492Z,7.40
2023-02-14T08:47:54.201Z,7.90
2023-02-14T08:50:22.071Z,7.13
2023-02-14T08:52:49.668Z,8.10
2023-02-14T08:55:17.341Z,7.80
2023-02-14T08:57:44.869Z,6.97
2023-02-14T09:00:14.954Z,7.70
2023-02-14T09:02:42.538Z,7.47
2023-02-14T09:05:10.685Z,7.90
2023-02-14T09:07:38.470Z,7.27
2023-02-14T09:10:07.456Z,9.23
2023-02-14T09:12:35.323Z,8.17
2023-02-14T09:15:02.887Z,8.00
2023-02-14T09:17:31.881Z,10.10
2023-02-14T09:19:59.373Z,9.33
2023-02-14T09:22:26.903Z,9.63
2023-02-14T09:24:54.515Z,8.90
2023-02-14T09:27:22.003Z,8.73
2023-02-14T09:29:49.447Z,9.70
2023-02-14T09:32:17.187Z,8.67
2023-02-14T09:35:04.047Z,9.07
2023-02-14T09:37:49.130Z,9.17
2023-02-14T09:40:20.043Z,9.40
2023-02-14T09:42:57.324Z,9.90
2023-02-14T09:45:27.620Z,9.63
2023-02-14T09:47:58.409Z,9.50
2023-02-14T09:50:31.228Z,12.53
2023-02-14T09:53:02.623Z,11.17
2023-02-14T09:55:40.663Z,11.70
2023-02-14T09:58:17.484Z,10.10
2023-02-14T10:00:47.714Z,10.80
2023-02-14T10:03:41.688Z,11.60
2023-02-14T10:06:24.204Z,10.40
2023-02-14T10:09:03.385Z,11.00
2023-02-14T10:11:31.284Z,11.63
2023-02-14T10:14:04.423Z,12.80
2023-02-14T10:16:37.016Z,11.70
2023-02-14T10:19:08.550Z,11.97
2023-02-14T10:21:41.349Z,12.00
2023-02-14T10:24:14.839Z,13.37
2023-02-14T10:26:42.904Z,12.93
2023-02-14T10:29:15.473Z,15.20
2023-02-14T10:31:51.455Z,14.93
2023-02-14T10:34:26.263Z,12.83
2023-02-14T10:37:14.953Z,13.60
2023-02-14T10:39:55.991Z,12.53
2023-02-14T10:42:31.693Z,13.20
2023-02-14T10:45:12.426Z,14.13
2023-02-14T10:47:49.953Z,12.90
2023-02-14T10:50:20.802Z,12.33
2023-02-14T10:52:59.261Z,14.00
2023-02-14T10:55:34.357Z,13.80
2023-02-14T10:58:05.725Z,14.17
2023-02-14T11:00:36.675Z,13.77
2023-02-14T11:03:08.253Z,15.47
2023-02-14T11:05:38.967Z,14.87
2023-02-14T11:08:15.928Z,14.30
2023-02-14T11:10:43.468Z,13.80
2023-02-14T11:13:33.615Z,14.93
2023-02-14T11:16:03.981Z,13.90
2023-02-14T11:18:35.920Z,13.60
2023-02-14T11:21:07.082Z,16.17
2023-02-14T11:23:38.441Z,15.33
2023-02-14T11:26:11.916Z,13.90
2023-02-14T11:28:50.094Z,13.93
2023-02-14T11:31:26.912Z,14.63
2023-02-14T11:33:54.474Z,13.23
2023-02-14T11:36:22.465Z,11.93
2023-02-14T11:39:02.819Z,13.27
2023-02-14T11:41:47.767Z,12.93
2023-02-14T11:44:23.967Z,12.33
2023-02-14T11:46:53.654Z,12.03
2023-02-14T11:49:28.547Z,11.87
2023-02-14T11:51:58.079Z,10.37
2023-02-14T11:54:31.327Z,10.53
2023-02-14T11:57:05.870Z,9.70
2023-02-14T11:59:37.803Z,11.40
2023-02-14T12:02:19.403Z,10.10
2023-02-14T12:04:51.114Z,9.27
2023-02-14T12:07:22.702Z,10.03
2023-02-14T12:10:09.127Z,10.10
2023-02-14T12:12:37.843Z,9.40
2023-02-14T12:15:23.973Z,9.77
2023-02-14T12:17:57.693Z,10.23
2023-02-14T12:20:36.558Z,10.77
2023-02-14T12:23:11.708Z,10.07
2023-02-14T12:25:46.135Z,8.67
2023-02-14T12:28:17.312Z,8.00
2023-02-14T12:30:44.823Z,8.37
2023-02-14T12:33:19.521Z,10.87
2023-02-14T12:35:55.187Z,8.83
2023-02-14T12:38:31.972Z,8.47
2023-02-14T12:41:17.408Z,8.43
2023-02-14T12:43:50.611Z,6.60
2023-02-14T12:46:34.244Z,8.10
2023-02-14T12:49:14.779Z,7.77
2023-02-14T12:51:50.386Z,7.20
2023-02-14T12:54:33.093Z,7.67
2023-02-14T12:57:08.783Z,7.90
2023-02-14T12:59:48.434Z,5.70
2023-02-14T13:02:57.417Z,5.33
2023-02-14T13:05:38.729Z,6.40
2023-02-14T13:08:20.691Z,5.73
2023-02-14T13:10:55.562Z,5.27
2023-02-14T13:13:35.567Z,6.03
2023-02-14T13:16:13.823Z,6.53
2023-02-14T13:18:50.532Z,5.83
2023-02-14T13:21:25.514Z,5.23
2023-02-14T13:23:58.839Z,5.77
2023-02-14T13:26:31.380Z,5.00
2023-02-14T13:29:05.123Z,5.73
2023-02-14T13:31:32.974Z,5.67
2023-02-14T13:34:04.997Z,6.00
2023-02-14T13:36:33.449Z,6.00
2023-02-14T13:39:01.842Z,5.70
2023-02-14T13:41:29.599Z,6.70
2023-02-14T13:44:01.386Z,5.80
2023-02-14T13:46:50.869Z,7.10
2023-02-14T13:49:27.500Z,6.90
2023-02-14T13:51:57.211Z,6.00
2023-02-14T13:54:34.332Z,5.13
2023-02-14T13:57:24.874Z,4.97
2023-02-14T14:00:37.759Z,6.13
2023-02-14T14:03:08.614Z,5.73
2023-02-14T14:06:05.120Z,6.30
2023-02-14T14:08:41.029Z,5.57
2023-02-14T14:11:13.697Z,7.00
2023-02-14T14:13:59.705Z,5.97
2023-02-14T14:16:29.586Z,6.07
2023-02-14T14:19:01.488Z,6.03
2023-02-14T14:21:30.716Z,6.63
2023-02-14T14:24:15.855Z,5.90
2023-02-14T14:26:45.805Z,6.43
2023-02-14T14:29:19.180Z,5.97
2023-02-14T14:31:48.239Z,5.90
2023-02-14T14:34:20.629Z,5.40
2023-02-14T14:36:48.581Z,6.47
2023-02-14T14:39:28.233Z,5.80
2023-02-14T14:41:56.120Z,6.60
2023-02-14T14:44:25.620Z,7.17
2023-02-14T14:46:53.555Z,6.37
2023-02-14T14:49:22.499Z,5.60
2023-02-14T14:51:50.516Z,6.67
2023-02-14T14:54:22.667Z,6.67
2023-02-14T14:56:53.055Z,6.60
2023-02-14T14:59:28.821Z,6.97
2023-02-14T15:01:56.864Z,7.40
2023-02-14T15:04:29.346Z,7.60
2023-02-14T15:06:58.558Z,8.63
2023-02-14T15:09:33.500Z,8.00
2023-02-14T15:12:21.052Z,7.97
2023-02-14T15:14:54.582Z,7.50
2023-02-14T15:17:26.006Z,8.63
2023-02-14T15:20:00.173Z,8.10
2023-02-14T15:22:30.449Z,7.40
2023-02-14T15:24:58.865Z,7.70
2023-02-14T15:27:28.184Z,7.80
2023-02-14T15:29:58.292Z,7.50
2023-02-14T15:32:27.875Z,7.60
2023-02-14T15:34:57.151Z,8.07
2023-02-14T15:37:26.453Z,6.50
2023-02-14T15:39:56.603Z,7.70
2023-02-14T15:42:27.745Z,8.50
2023-02-14T15:45:23.706Z,7.33
2023-02-14T15:47:53.586Z,8.67
2023-02-14T15:50:25.981Z,7.07
2023-02-14T15:52:56.478Z,7.60
2023-02-14T15:55:27.644Z,7.87
2023-02-14T15:57:58.797Z,8.30
2023-02-14T16:00:26.838Z,8.17
2023-02-14T16:02:57.665Z,8.07
2023-02-14T16:05:28.137Z,6.70
2023-02-14T16:08:03.371Z,7.53
2023-02-14T16:10:32.567Z,6.57
2023-02-14T16:13:03.607Z,6.33
2023-02-14T16:15:33.028Z,6.03
2023-02-14T16:18:06.892Z,7.70
2023-02-14T16:20:46.944Z,7.40
2023-02-14T16:23:23.620Z,6.80
2023-02-14T16:25:51.822Z,5.73
2023-02-14T16:28:19.585Z,6.50
2023-02-14T16:30:48.822Z,5.93
2023-02-14T16:33:21.534Z,7.10
2023-02-14T16:35:51.400Z,8.03
2023-02-14T16:38:20.858Z,6.07
2023-02-14T16:40:50.408Z,7.40
2023-02-14T16:43:19.610Z,6.80
2023-02-14T16:45:48.090Z,6.27
2023-02-14T16:48:16.725Z,6.77
2023-02-14T16:50:45.985Z,5.87
2023-02-14T16:53:24.543Z,5.87
2023-02-14T16:55:54.167Z,5.83
2023-02-14T16:58:24.082Z,6.97
2023-02-14T17:00:55.045Z,6.67
2023-02-14T17:03:22.769Z,6.70
2023-02-14T17:05:50.422Z,6.07
2023-02-14T17:08:19.709Z,5.90
2023-02-14T17:10:48.625Z,6.33
2023-02-14T17:13:19.669Z,6.17
2023-02-14T17:15:47.608Z,8.30
2023-02-14T17:18:18.603Z,5.97
2023-02-14T17:20:46.317Z,6.70
2023-02-14T17:23:13.839Z,6.23
2023-02-14T17:25:43.340Z,7.03
2023-02-14T17:28:11.022Z,7.33
2023-02-14T17:30:38.922Z,7.47
2023-02-14T17:33:06.556Z,7.10
2023-02-14T17:35:35.235Z,6.20
2023-02-14T17:38:03.021Z,7.20
2023-02-14T17:40:31.297Z,6.80
2023-02-14T17:43:01.573Z,7.00
2023-02-14T17:45:29.526Z,6.80
2023-02-14T17:47:57.248Z,8.10
2023-02-14T17:50:24.895Z,7.60
2023-02-14T17:52:54.775Z,6.73
2023-02-14T17:55:22.491Z,6.97
2023-02-14T17:57:52.434Z,7.37
2023-02-14T18:00:22.597Z,8.47
2023-02-14T18:02:50.430Z,7.47
2023-02-14T18:05:18.213Z,8.10
2023-02-14T18:07:46.208Z,8.50
2023-02-14T18:10:13.783Z,8.23
2023-02-14T18:12:42.445Z,9.60
2023-02-14T18:15:10.898Z,8.00
2023-02-14T18:17:40.592Z,7.33
2023-02-14T18:20:09.403Z,7.20
2023-02-14T18:22:36.951Z,8.00
2023-02-14T18:25:04.770Z,6.73
2023-02-14T18:27:32.394Z,7.00
2023-02-14T18:30:00.005Z,6.97
2023-02-14T18:32:27.592Z,7.30
2023-02-14T18:34:56.621Z,8.03
2023-02-14T18:37:24.215Z,6.70
2023-02-14T18:39:51.860Z,8.20
2023-02-14T18:42:19.363Z,8.10
2023-02-14T18:44:47.108Z,9.00
2023-02-14T18:47:14.811Z,9.97
2023-02-14T18:49:46.433Z,9.67
2023-02-14T18:52:15.773Z,11.00
2023-02-14T18:54:45.335Z,12.70
2023-02-14T18:57:12.943Z,11.30
2023-02-14T18:59:42.129Z,9.97
2023-02-14T19:02:14.805Z,11.97
2023-02-14T19:04:43.420Z,11.97
2023-02-14T19:07:11.775Z,11.90
2023-02-14T19:09:42.184Z,9.20
2023-02-14T19:12:10.473Z,11.73
2023-02-14T19:14:38.659Z,11.07
2023-02-14T19:17:06.682Z,10.07
2023-02-14T19:19:34.707Z,10.20
2023-02-14T19:22:05.584Z,11.30
2023-02-14T19:24:39.894Z,10.67
2023-02-14T19:27:08.951Z,10.53
2023-02-14T19:29:42.543Z,11.37
2023-02-14T19:32:10.723Z,10.33
2023-02-14T19:34:38.919Z,9.93
2023-02-14T19:37:06.498Z,11.27
2023-02-14T19:39:34.120Z,10.93
2023-02-14T19:42:01.971Z,9.40
2023-02-14T19:44:31.130Z,10.07
2023-02-14T19:47:02.738Z,10.57
2023-02-14T19:49:31.925Z,14.30
2023-02-14T19:52:00.018Z,12.37
2023-02-14T19:54:27.598Z,11.83
2023-02-14T19:56:56.239Z,13.70
2023-02-14T19:59:24.030Z,13.97
2023-02-14T20:01:54.315Z,11.90
2023-02-14T20:04:23.765Z,11.80
2023-02-14T20:06:51.829Z,13.20
2023-02-14T20:09:21.596Z,13.07
2023-02-14T20:11:51.165Z,13.40
2023-02-14T20:14:21.216Z,11.60
2023-02-14T20:16:49.481Z,11.70
2023-02-14T20:19:20.599Z,11.27
2023-02-14T20:21:52.256Z,12.03
2023-02-14T20:24:22.353Z,10.47
2023-02-14T20:26:51.660Z,12.13
2023-02-14T20:29:20.870Z,11.80
2023-02-14T20:31:50.900Z,15.20
2023-02-14T20:34:19.968Z,11.60
2023-02-14T20:36:49.540Z,12.03
2023-02-14T20:39:17.301Z,11.57
2023-02-14T20:41:49.844Z,11.70
2023-02-14T20:44:21.553Z,12.73
2023-02-14T20:46:51.437Z,13.43
2023-02-14T20:49:21.980Z,13.53
2023-02-14T20:51:50.639Z,12.60
2023-02-14T20:54:18.588Z,13.30
2023-02-14T20:56:46.715Z,11.77
2023-02-14T20:59:14.666Z,12.07
2023-02-14T21:01:42.468Z,12.57
2023-02-14T21:04:13.195Z,12.20
2023-02-14T21:06:42.128Z,12.27
2023-02-14T21:09:09.836Z,15.00
2023-02-14T21:11:37.486Z,11.70
2023-02-14T21:14:05.747Z,13.40
2023-02-14T21:16:33.197Z,11.30
2023-02-14T21:19:01.313Z,12.00
2023-02-14T21:21:34.569Z,11.60
2023-02-14T21:24:05.637Z,12.33
2023-02-14T21:26:33.663Z,12.73
2023-02-14T21:29:03.745Z,14.77
2023-02-14T21:31:32.097Z,11.00
2023-02-14T21:34:01.204Z,13.30
2023-02-14T21:36:30.988Z,9.73
2023-02-14T21:38:59.770Z,11.07
2023-02-14T21:41:30.672Z,12.20
2023-02-14T21:43:59.970Z,10.47
2023-02-14T21:46:30.920Z,11.70
2023-02-14T21:49:16.936Z,10.20
2023-02-14T21:51:44.866Z,10.37
2023-02-14T21:54:12.864Z,10.87
2023-02-14T21:56:42.473Z,10.60
2023-02-14T21:59:11.511Z,11.40
2023-02-14T22:01:41.937Z,11.40
2023-02-14T22:04:12.181Z,9.90
2023-02-14T22:06:41.728Z,10.27
2023-02-14T22:09:10.769Z,11.40
2023-02-14T22:11:38.779Z,11.90
2023-02-14T22:14:07.547Z,10.40
2023-02-14T22:16:38.032Z,10.60
2023-02-14T22:19:06.003Z,10.83
2023-02-14T22:21:34.246Z,10.70
2023-02-14T22:24:02.062Z,11.60
2023-02-14T22:26:35.279Z,9.97
2023-02-14T22:29:03.588Z,10.27
2023-02-14T22:31:35.255Z,10.50
2023-02-14T22:34:02.816Z,8.83
2023-02-14T22:36:30.288Z,10.97
2023-02-14T22:38:57.781Z,10.97
2023-02-14T22:41:26.558Z,11.40
2023-02-14T22:43:54.785Z,11.13
2023-02-14T22:46:24.541Z,10.30
2023-02-14T22:48:53.977Z,11.30
2023-02-14T22:51:23.171Z,10.60
2023-02-14T22:53:51.494Z,11.60
2023-02-14T22:56:21.022Z,10.30
2023-02-14T22:58:48.891Z,10.03
2023-02-14T23:01:19.870Z,9.70
2023-02-14T23:03:48.658Z,10.40
2023-02-14T23:06:17.499Z,11.93
2023-02-14T23:08:47.342Z,12.70
2023-02-14T23:11:16.897Z,10.17
2023-02-14T23:14:02.015Z,10.80
2023-02-14T23:16:47.161Z,9.40
2023-02-14T23:19:33.843Z,12.47
2023-02-14T23:22:06.091Z,11.20
2023-02-14T23:24:35.746Z,11.93
2023-02-14T23:27:03.530Z,8.60
2023-02-14T23:29:31.679Z,10.03
2023-02-14T23:31:59.589Z,10.20
2023-02-14T23:34:27.611Z,9.47
2023-02-14T23:36:55.125Z,10.63
2023-02-14T23:39:24.332Z,10.70
2023-02-14T23:41:51.931Z,9.83
2023-02-14T23:44:21.791Z,10.40
2023-02-14T23:46:50.575Z,10.40
2023-02-14T23:49:18.794Z,9.53
2023-02-14T23:51:47.729Z,9.83
2023-02-14T23:54:15.608Z,9.80
2023-02-14T23:56:45.572Z,11.07
2023-02-14T23:59:14.313Z,9.87
